sensor_id;sensor_type;location;lat;lon;timestamp;P1;durP1;ratioP1;P2;durP2;ratioP2
4182;SDS011;2105;52.300;9.182;2023-02-25T00:01:34;28.43;;;7.90;;
4182;SDS011;2105;52.300;9.182;2023-02-25T00:04:04;23.20;;;6.70;;
4182;SDS011;2105;52.300;9.182;2023-02-25T00:06:34;27.27;;;7.50;;
4182;SDS011;2105;52.300;9.182;2023-02-25T00:09:18;35.67;;;7.57;;
4182;SDS011;2105;52.300;9.182;2023-02-25T00:11:47;30.50;;;7.33;;
4182;SDS011;2105;52.300;9.182;2023-02-25T00:14:14;22.20;;;7.10;;
4182;SDS011;2105;52.300;9.182;2023-02-25T00:16:44;27.93;;;7.20;;
4182;SDS011;2105;52.300;9.182;2023-02-25T00:19:11;29.53;;;7.90;;
4182;SDS011;2105;52.300;9.182;2023-02-25T00:21:40;22.70;;;6.80;;
4182;SDS011;2105;52.300;9.182;2023-02-25T00:24:08;43.67;;;7.83;;
4182;SDS011;2105;52.300;9.182;2023-02-25T00:26:53;26.40;;;7.00;;
4182;SDS011;2105;52.300;9.182;2023-02-25T00:29:23;32.90;;;7.73;;
4182;SDS011;2105;52.300;9.182;2023-02-25T00:31:53;36.00;;;8.47;;
4182;SDS011;2105;52.300;9.182;2023-02-25T00:34:22;25.20;;;6.77;;
4182;SDS011;2105;52.300;9.182;2023-02-25T00:36:52;30.80;;;7.30;;
4182;SDS011;2105;52.300;9.182;2023-02-25T00:39:20;32.97;;;8.10;;
4182;SDS011;2105;52.300;9.182;2023-02-25T00:41:50;25.20;;;8.10;;
4182;SDS011;2105;52.300;9.182;2023-02-25T00:44:22;24.63;;;7.03;;
4182;SDS011;2105;52.300;9.182;2023-02-25T00:46:53;31.30;;;7.63;;
4182;SDS011;2105;52.300;9.182;2023-02-25T00:49:26;20.03;;;6.30;;
4182;SDS011;2105;52.300;9.182;2023-02-25T00:52:01;26.13;;;7.33;;
4182;SDS011;2105;52.300;9.182;2023-02-25T00:54:34;22.40;;;6.37;;
4182;SDS011;2105;52.300;9.182;2023-02-25T00:57:04;27.00;;;6.77;;
4182;SDS011;2105;52.300;9.182;2023-02-25T00:59:33;25.50;;;7.20;;
4182;SDS011;2105;52.300;9.182;2023-02-25T01:02:01;29.63;;;7.10;;
4182;SDS011;2105;52.300;9.182;2023-02-25T01:04:30;30.07;;;7.03;;
4182;SDS011;2105;52.300;9.182;2023-02-25T01:06:59;28.83;;;7.27;;
4182;SDS011;2105;52.300;9.182;2023-02-25T01:09:26;30.47;;;7.57;;
4182;SDS011;2105;52.300;9.182;2023-02-25T01:11:53;23.00;;;7.27;;
4182;SDS011;2105;52.300;9.182;2023-02-25T01:14:22;33.63;;;7.37;;
4182;SDS011;2105;52.300;9.182;2023-02-25T01:16:52;31.13;;;7.73;;
4182;SDS011;2105;52.300;9.182;2023-02-25T01:19:26;38.23;;;7.17;;
4182;SDS011;2105;52.300;9.182;2023-02-25T01:21:54;36.83;;;8.30;;
4182;SDS011;2105;52.300;9.182;2023-02-25T01:24:27;25.50;;;6.50;;
4182;SDS011;2105;52.300;9.182;2023-02-25T01:26:56;19.10;;;6.43;;
4182;SDS011;2105;52.300;9.182;2023-02-25T01:29:25;31.27;;;6.73;;
4182;SDS011;2105;52.300;9.182;2023-02-25T01:31:54;18.00;;;6.40;;
4182;SDS011;2105;52.300;9.182;2023-02-25T01:34:22;12.43;;;6.10;;
4182;SDS011;2105;52.300;9.182;2023-02-25T01:36:54;17.70;;;6.87;;
4182;SDS011;2105;52.300;9.182;2023-02-25T01:39:28;18.93;;;7.00;;
4182;SDS011;2105;52.300;9.182;2023-02-25T01:41:56;26.23;;;7.50;;
4182;SDS011;2105;52.300;9.182;2023-02-25T01:44:28;32.50;;;7.13;;
4182;SDS011;2105;52.300;9.182;2023-02-25T01:46:56;25.53;;;6.87;;
4182;SDS011;2105;52.300;9.182;2023-02-25T01:49:26;23.10;;;6.53;;
4182;SDS011;2105;52.300;9.182;2023-02-25T01:51:59;22.23;;;6.60;;
4182;SDS011;2105;52.300;9.182;2023-02-25T01:54:35;25.80;;;6.60;;
4182;SDS011;2105;52.300;9.182;2023-02-25T01:57:05;17.93;;;6.30;;
4182;SDS011;2105;52.300;9.182;2023-02-25T01:59:33;18.80;;;6.43;;
4182;SDS011;2105;52.300;9.182;2023-02-25T02:02:02;17.23;;;6.43;;
4182;SDS011;2105;52.300;9.182;2023-02-25T02:04:29;26.17;;;6.87;;
4182;SDS011;2105;52.300;9.182;2023-02-25T02:06:58;18.10;;;5.77;;
4182;SDS011;2105;52.300;9.182;2023-02-25T02:09:27;27.43;;;7.40;;
4182;SDS011;2105;52.300;9.182;2023-02-25T02:11:56;17.70;;;6.47;;
4182;SDS011;2105;52.300;9.182;2023-02-25T02:14:28;15.50;;;6.50;;
4182;SDS011;2105;52.300;9.182;2023-02-25T02:17:01;17.53;;;6.83;;
4182;SDS011;2105;52.300;9.182;2023-02-25T02:19:47;22.47;;;6.40;;
4182;SDS011;2105;52.300;9.182;2023-02-25T02:22:34;20.20;;;7.20;;
4182;SDS011;2105;52.300;9.182;2023-02-25T02:28:29;20.63;;;7.10;;
4182;SDS011;2105;52.300;9.182;2023-02-25T02:31:14;14.17;;;5.90;;
4182;SDS011;2105;52.300;9.182;2023-02-25T02:33:55;15.67;;;6.10;;
4182;SDS011;2105;52.300;9.182;2023-02-25T02:36:28;18.93;;;6.73;;
4182;SDS011;2105;52.300;9.182;2023-02-25T02:39:03;11.90;;;6.30;;
4182;SDS011;2105;52.300;9.182;2023-02-25T02:41:40;10.33;;;6.20;;
4182;SDS011;2105;52.300;9.182;2023-02-25T02:44:12;15.80;;;6.83;;
4182;SDS011;2105;52.300;9.182;2023-02-25T02:46:46;16.87;;;6.80;;
4182;SDS011;2105;52.300;9.182;2023-02-25T02:49:17;14.63;;;6.43;;
4182;SDS011;2105;52.300;9.182;2023-02-25T02:51:52;18.87;;;7.10;;
4182;SDS011;2105;52.300;9.182;2023-02-25T02:54:22;26.57;;;6.60;;
4182;SDS011;2105;52.300;9.182;2023-02-25T02:56:52;18.10;;;6.63;;
4182;SDS011;2105;52.300;9.182;2023-02-25T02:59:22;12.03;;;7.07;;
4182;SDS011;2105;52.300;9.182;2023-02-25T03:01:55;15.03;;;6.70;;
4182;SDS011;2105;52.300;9.182;2023-02-25T03:04:28;19.00;;;7.43;;
4182;SDS011;2105;52.300;9.182;2023-02-25T03:07:00;11.20;;;7.13;;
4182;SDS011;2105;52.300;9.182;2023-02-25T03:09:31;18.53;;;7.00;;
4182;SDS011;2105;52.300;9.182;2023-02-25T03:12:02;13.90;;;7.73;;
4182;SDS011;2105;52.300;9.182;2023-02-25T03:14:29;26.27;;;7.57;;
4182;SDS011;2105;52.300;9.182;2023-02-25T03:16:58;16.40;;;8.10;;
4182;SDS011;2105;52.300;9.182;2023-02-25T03:19:31;17.30;;;7.23;;
4182;SDS011;2105;52.300;9.182;2023-02-25T03:22:05;16.83;;;7.50;;
4182;SDS011;2105;52.300;9.182;2023-02-25T03:24:36;18.77;;;7.90;;
4182;SDS011;2105;52.300;9.182;2023-02-25T03:27:19;17.67;;;7.70;;
4182;SDS011;2105;52.300;9.182;2023-02-25T03:29:50;17.10;;;7.40;;
4182;SDS011;2105;52.300;9.182;2023-02-25T03:32:22;29.83;;;7.40;;
4182;SDS011;2105;52.300;9.182;2023-02-25T03:34:51;12.23;;;7.00;;
4182;SDS011;2105;52.300;9.182;2023-02-25T03:37:22;16.10;;;8.00;;
4182;SDS011;2105;52.300;9.182;2023-02-25T03:39:55;16.20;;;7.70;;
4182;SDS011;2105;52.300;9.182;2023-02-25T03:42:26;15.50;;;7.33;;
4182;SDS011;2105;52.300;9.182;2023-02-25T03:44:58;17.00;;;6.83;;
4182;SDS011;2105;52.300;9.182;2023-02-25T03:47:30;14.67;;;6.57;;
4182;SDS011;2105;52.300;9.182;2023-02-25T03:50:01;16.20;;;6.80;;
4182;SDS011;2105;52.300;9.182;2023-02-25T03:52:35;18.13;;;7.00;;
4182;SDS011;2105;52.300;9.182;2023-02-25T03:55:05;14.20;;;6.87;;
4182;SDS011;2105;52.300;9.182;2023-02-25T03:57:35;12.23;;;6.73;;
4182;SDS011;2105;52.300;9.182;2023-02-25T04:00:04;13.47;;;6.50;;
4182;SDS011;2105;52.300;9.182;2023-02-25T04:02:43;15.77;;;6.30;;
4182;SDS011;2105;52.300;9.182;2023-02-25T04:05:11;15.00;;;6.63;;
4182;SDS011;2105;52.300;9.182;2023-02-25T04:07:40;12.87;;;5.90;;
4182;SDS011;2105;52.300;9.182;2023-02-25T04:10:08;13.20;;;6.17;;
4182;SDS011;2105;52.300;9.182;2023-02-25T04:12:36;14.33;;;5.97;;
4182;SDS011;2105;52.300;9.182;2023-02-25T04:15:03;12.53;;;6.43;;
4182;SDS011;2105;52.300;9.182;2023-02-25T04:17:31;15.27;;;6.97;;
4182;SDS011;2105;52.300;9.182;2023-02-25T04:20:00;17.87;;;6.60;;
4182;SDS011;2105;52.300;9.182;2023-02-25T04:22:27;19.70;;;6.70;;
4182;SDS011;2105;52.300;9.182;2023-02-25T04:24:55;13.27;;;5.97;;
4182;SDS011;2105;52.300;9.182;2023-02-25T04:27:24;19.60;;;6.50;;
4182;SDS011;2105;52.300;9.182;2023-02-25T04:29:51;14.50;;;6.67;;
4182;SDS011;2105;52.300;9.182;2023-02-25T04:32:18;14.33;;;6.70;;
4182;SDS011;2105;52.300;9.182;2023-02-25T04:34:44;12.00;;;5.93;;
4182;SDS011;2105;52.300;9.182;2023-02-25T04:37:13;12.53;;;5.97;;
4182;SDS011;2105;52.300;9.182;2023-02-25T04:39:39;16.30;;;6.20;;
4182;SDS011;2105;52.300;9.182;2023-02-25T04:42:06;15.60;;;6.37;;
4182;SDS011;2105;52.300;9.182;2023-02-25T04:44:33;12.37;;;5.30;;
4182;SDS011;2105;52.300;9.182;2023-02-25T04:47:00;20.63;;;5.60;;
4182;SDS011;2105;52.300;9.182;2023-02-25T04:49:27;11.50;;;5.70;;
4182;SDS011;2105;52.300;9.182;2023-02-25T04:51:59;14.87;;;5.50;;
4182;SDS011;2105;52.300;9.182;2023-02-25T04:54:42;16.17;;;5.50;;
4182;SDS011;2105;52.300;9.182;2023-02-25T04:57:09;11.47;;;5.00;;
4182;SDS011;2105;52.300;9.182;2023-02-25T04:59:36;14.23;;;4.87;;
4182;SDS011;2105;52.300;9.182;2023-02-25T05:02:03;8.43;;;4.90;;
4182;SDS011;2105;52.300;9.182;2023-02-25T05:04:31;11.30;;;5.10;;
4182;SDS011;2105;52.300;9.182;2023-02-25T05:06:58;9.80;;;5.60;;
4182;SDS011;2105;52.300;9.182;2023-02-25T05:09:25;13.93;;;4.83;;
4182;SDS011;2105;52.300;9.182;2023-02-25T05:11:53;12.57;;;4.80;;
4182;SDS011;2105;52.300;9.182;2023-02-25T05:14:20;11.43;;;5.13;;
4182;SDS011;2105;52.300;9.182;2023-02-25T05:16:47;7.70;;;5.60;;
4182;SDS011;2105;52.300;9.182;2023-02-25T05:19:14;9.03;;;5.90;;
4182;SDS011;2105;52.300;9.182;2023-02-25T05:21:41;6.37;;;5.73;;
4182;SDS011;2105;52.300;9.182;2023-02-25T05:24:09;11.43;;;5.80;;
4182;SDS011;2105;52.300;9.182;2023-02-25T05:26:36;14.73;;;6.50;;
4182;SDS011;2105;52.300;9.182;2023-02-25T05:29:05;8.93;;;5.87;;
4182;SDS011;2105;52.300;9.182;2023-02-25T05:31:32;7.00;;;5.70;;
4182;SDS011;2105;52.300;9.182;2023-02-25T05:33:59;6.73;;;5.97;;
4182;SDS011;2105;52.300;9.182;2023-02-25T05:36:25;8.00;;;6.70;;
4182;SDS011;2105;52.300;9.182;2023-02-25T05:38:53;9.20;;;7.00;;
4182;SDS011;2105;52.300;9.182;2023-02-25T05:41:20;13.90;;;6.87;;
4182;SDS011;2105;52.300;9.182;2023-02-25T05:43:47;13.53;;;7.13;;
4182;SDS011;2105;52.300;9.182;2023-02-25T05:46:15;14.00;;;7.40;;
4182;SDS011;2105;52.300;9.182;2023-02-25T05:48:42;11.23;;;6.90;;
4182;SDS011;2105;52.300;9.182;2023-02-25T05:51:11;11.00;;;7.33;;
4182;SDS011;2105;52.300;9.182;2023-02-25T05:53:39;12.87;;;6.73;;
4182;SDS011;2105;52.300;9.182;2023-02-25T05:56:07;11.07;;;6.33;;
4182;SDS011;2105;52.300;9.182;2023-02-25T05:58:36;7.87;;;6.13;;
4182;SDS011;2105;52.300;9.182;2023-02-25T06:01:05;6.77;;;5.83;;
4182;SDS011;2105;52.300;9.182;2023-02-25T06:03:36;8.57;;;6.20;;
4182;SDS011;2105;52.300;9.182;2023-02-25T06:06:02;13.93;;;6.53;;
4182;SDS011;2105;52.300;9.182;2023-02-25T06:08:30;8.90;;;6.00;;
4182;SDS011;2105;52.300;9.182;2023-02-25T06:10:57;6.97;;;6.27;;
4182;SDS011;2105;52.300;9.182;2023-02-25T06:13:24;7.20;;;6.40;;
4182;SDS011;2105;52.300;9.182;2023-02-25T06:15:51;11.70;;;6.70;;
4182;SDS011;2105;52.300;9.182;2023-02-25T06:18:19;6.97;;;6.27;;
4182;SDS011;2105;52.300;9.182;2023-02-25T06:20:47;7.30;;;6.60;;
4182;SDS011;2105;52.300;9.182;2023-02-25T06:23:14;7.30;;;6.40;;
4182;SDS011;2105;52.300;9.182;2023-02-25T06:25:41;12.07;;;6.57;;
4182;SDS011;2105;52.300;9.182;2023-02-25T06:28:10;9.47;;;6.27;;
4182;SDS011;2105;52.300;9.182;2023-02-25T06:30:39;11.50;;;6.43;;
4182;SDS011;2105;52.300;9.182;2023-02-25T06:33:06;10.80;;;6.00;;
4182;SDS011;2105;52.300;9.182;2023-02-25T06:35:33;7.40;;;6.47;;
4182;SDS011;2105;52.300;9.182;2023-02-25T06:38:03;14.53;;;6.50;;
4182;SDS011;2105;52.300;9.182;2023-02-25T06:40:31;14.03;;;6.83;;
4182;SDS011;2105;52.300;9.182;2023-02-25T06:42:58;20.03;;;6.27;;
4182;SDS011;2105;52.300;9.182;2023-02-25T06:45:30;13.03;;;6.67;;
4182;SDS011;2105;52.300;9.182;2023-02-25T06:47:56;10.03;;;6.70;;
4182;SDS011;2105;52.300;9.182;2023-02-25T06:50:23;13.20;;;6.50;;
4182;SDS011;2105;52.300;9.182;2023-02-25T06:52:52;10.57;;;6.30;;
4182;SDS011;2105;52.300;9.182;2023-02-25T06:55:20;12.43;;;6.37;;
4182;SDS011;2105;52.300;9.182;2023-02-25T06:57:47;10.53;;;6.97;;
4182;SDS011;2105;52.300;9.182;2023-02-25T07:00:14;14.23;;;5.93;;
4182;SDS011;2105;52.300;9.182;2023-02-25T07:02:41;15.93;;;6.57;;
4182;SDS011;2105;52.300;9.182;2023-02-25T07:05:10;12.00;;;6.67;;
4182;SDS011;2105;52.300;9.182;2023-02-25T07:07:37;21.60;;;7.33;;
4182;SDS011;2105;52.300;9.182;2023-02-25T07:10:04;13.07;;;7.03;;
4182;SDS011;2105;52.300;9.182;2023-02-25T07:12:33;8.67;;;7.20;;
4182;SDS011;2105;52.300;9.182;2023-02-25T07:14:59;8.63;;;6.80;;
4182;SDS011;2105;52.300;9.182;2023-02-25T07:17:26;11.23;;;7.10;;
4182;SDS011;2105;52.300;9.182;2023-02-25T07:19:53;11.03;;;6.53;;
4182;SDS011;2105;52.300;9.182;2023-02-25T07:22:20;15.90;;;7.27;;
4182;SDS011;2105;52.300;9.182;2023-02-25T07:24:47;11.03;;;7.93;;
4182;SDS011;2105;52.300;9.182;2023-02-25T07:27:15;9.13;;;7.00;;
4182;SDS011;2105;52.300;9.182;2023-02-25T07:29:43;11.97;;;8.10;;
4182;SDS011;2105;52.300;9.182;2023-02-25T07:32:10;7.60;;;6.90;;
4182;SDS011;2105;52.300;9.182;2023-02-25T07:34:36;10.37;;;7.67;;
4182;SDS011;2105;52.300;9.182;2023-02-25T07:37:04;16.60;;;7.70;;
4182;SDS011;2105;52.300;9.182;2023-02-25T07:39:32;8.77;;;7.40;;
4182;SDS011;2105;52.300;9.182;2023-02-25T07:42:01;9.37;;;7.90;;
4182;SDS011;2105;52.300;9.182;2023-02-25T07:44:31;10.70;;;7.87;;
4182;SDS011;2105;52.300;9.182;2023-02-25T07:47:01;11.00;;;8.33;;
4182;SDS011;2105;52.300;9.182;2023-02-25T07:49:28;16.00;;;7.90;;
4182;SDS011;2105;52.300;9.182;2023-02-25T07:51:55;12.33;;;8.00;;
4182;SDS011;2105;52.300;9.182;2023-02-25T07:54:21;8.70;;;7.90;;
4182;SDS011;2105;52.300;9.182;2023-02-25T07:56:51;11.20;;;8.50;;
4182;SDS011;2105;52.300;9.182;2023-02-25T07:59:18;10.40;;;8.47;;
4182;SDS011;2105;52.300;9.182;2023-02-25T08:01:45;13.53;;;7.93;;
4182;SDS011;2105;52.300;9.182;2023-02-25T08:04:13;9.33;;;7.90;;
4182;SDS011;2105;52.300;9.182;2023-02-25T08:06:41;9.00;;;7.90;;
4182;SDS011;2105;52.300;9.182;2023-02-25T08:09:11;13.27;;;8.17;;
4182;SDS011;2105;52.300;9.182;2023-02-25T08:11:40;19.03;;;8.50;;
4182;SDS011;2105;52.300;9.182;2023-02-25T08:14:08;8.60;;;7.90;;
4182;SDS011;2105;52.300;9.182;2023-02-25T08:16:35;10.67;;;8.23;;
4182;SDS011;2105;52.300;9.182;2023-02-25T08:19:04;11.40;;;8.30;;
4182;SDS011;2105;52.300;9.182;2023-02-25T08:21:34;8.73;;;8.03;;
4182;SDS011;2105;52.300;9.182;2023-02-25T08:24:04;14.63;;;8.80;;
4182;SDS011;2105;52.300;9.182;2023-02-25T08:26:32;10.10;;;9.10;;
4182;SDS011;2105;52.300;9.182;2023-02-25T08:29:02;10.07;;;9.17;;
4182;SDS011;2105;52.300;9.182;2023-02-25T08:31:30;9.57;;;8.70;;
4182;SDS011;2105;52.300;9.182;2023-02-25T08:33:57;10.10;;;9.20;;
4182;SDS011;2105;52.300;9.182;2023-02-25T08:36:28;11.90;;;10.23;;
4182;SDS011;2105;52.300;9.182;2023-02-25T08:38:59;13.07;;;10.83;;
4182;SDS011;2105;52.300;9.182;2023-02-25T08:41:29;11.90;;;10.80;;
4182;SDS011;2105;52.300;9.182;2023-02-25T08:43:57;11.90;;;10.87;;
4182;SDS011;2105;52.300;9.182;2023-02-25T08:46:28;12.70;;;11.00;;
4182;SDS011;2105;52.300;9.182;2023-02-25T08:48:57;13.73;;;11.73;;
4182;SDS011;2105;52.300;9.182;2023-02-25T08:51:24;12.00;;;11.10;;
4182;SDS011;2105;52.300;9.182;2023-02-25T08:53:59;11.60;;;10.70;;
4182;SDS011;2105;52.300;9.182;2023-02-25T08:56:28;11.03;;;10.00;;
4182;SDS011;2105;52.300;9.182;2023-02-25T08:58:55;13.07;;;11.07;;
4182;SDS011;2105;52.300;9.182;2023-02-25T09:01:21;11.70;;;10.80;;
4182;SDS011;2105;52.300;9.182;2023-02-25T09:03:49;11.60;;;10.43;;
4182;SDS011;2105;52.300;9.182;2023-02-25T09:06:21;12.23;;;10.20;;
4182;SDS011;2105;52.300;9.182;2023-02-25T09:08:52;11.13;;;10.13;;
4182;SDS011;2105;52.300;9.182;2023-02-25T09:11:24;10.70;;;9.60;;
4182;SDS011;2105;52.300;9.182;2023-02-25T09:13:53;9.93;;;9.10;;
4182;SDS011;2105;52.300;9.182;2023-02-25T09:16:20;14.43;;;8.80;;
4182;SDS011;2105;52.300;9.182;2023-02-25T09:18:47;11.50;;;8.70;;
4182;SDS011;2105;52.300;9.182;2023-02-25T09:21:16;9.90;;;8.70;;
4182;SDS011;2105;52.300;9.182;2023-02-25T09:23:44;9.43;;;8.40;;
4182;SDS011;2105;52.300;9.182;2023-02-25T09:26:11;9.50;;;8.80;;
4182;SDS011;2105;52.300;9.182;2023-02-25T09:28:40;9.40;;;8.23;;
4182;SDS011;2105;52.300;9.182;2023-02-25T09:31:07;10.73;;;8.80;;
4182;SDS011;2105;52.300;9.182;2023-02-25T09:33:34;11.43;;;9.13;;
4182;SDS011;2105;52.300;9.182;2023-02-25T09:36:03;9.50;;;8.70;;
4182;SDS011;2105;52.300;9.182;2023-02-25T09:38:31;10.57;;;9.67;;
4182;SDS011;2105;52.300;9.182;2023-02-25T09:40:58;15.90;;;9.30;;
4182;SDS011;2105;52.300;9.182;2023-02-25T09:43:27;12.87;;;9.57;;
4182;SDS011;2105;52.300;9.182;2023-02-25T09:49:20;12.30;;;10.43;;
4182;SDS011;2105;52.300;9.182;2023-02-25T09:51:59;12.33;;;10.30;;
4182;SDS011;2105;52.300;9.182;2023-02-25T09:54:45;17.20;;;10.10;;
4182;SDS011;2105;52.300;9.182;2023-02-25T09:57:29;11.30;;;10.40;;
4182;SDS011;2105;52.300;9.182;2023-02-25T10:00:10;11.93;;;10.80;;
4182;SDS011;2105;52.300;9.182;2023-02-25T10:03:20;16.50;;;10.80;;
4182;SDS011;2105;52.300;9.182;2023-02-25T10:05:55;12.10;;;11.00;;
4182;SDS011;2105;52.300;9.182;2023-02-25T10:08:27;11.30;;;10.50;;
4182;SDS011;2105;52.300;9.182;2023-02-25T10:11:00;12.80;;;11.80;;
4182;SDS011;2105;52.300;9.182;2023-02-25T10:13:35;11.57;;;10.43;;
4182;SDS011;2105;52.300;9.182;2023-02-25T10:16:10;11.57;;;10.57;;
4182;SDS011;2105;52.300;9.182;2023-02-25T10:18:58;11.63;;;10.53;;
4182;SDS011;2105;52.300;9.182;2023-02-25T10:21:41;12.60;;;11.33;;
4182;SDS011;2105;52.300;9.182;2023-02-25T10:24:19;13.30;;;12.10;;
4182;SDS011;2105;52.300;9.182;2023-02-25T10:26:53;13.10;;;11.90;;
4182;SDS011;2105;52.300;9.182;2023-02-25T10:29:29;13.67;;;12.47;;
4182;SDS011;2105;52.300;9.182;2023-02-25T10:32:10;13.67;;;12.67;;
4182;SDS011;2105;52.300;9.182;2023-02-25T10:34:41;14.73;;;13.43;;
4182;SDS011;2105;52.300;9.182;2023-02-25T10:37:12;14.40;;;13.30;;
4182;SDS011;2105;52.300;9.182;2023-02-25T10:39:45;14.40;;;13.20;;
4182;SDS011;2105;52.300;9.182;2023-02-25T10:42:13;15.40;;;14.00;;
4182;SDS011;2105;52.300;9.182;2023-02-25T10:44:40;14.57;;;13.33;;
4182;SDS011;2105;52.300;9.182;2023-02-25T10:47:11;15.47;;;14.10;;
4182;SDS011;2105;52.300;9.182;2023-02-25T10:52:51;14.03;;;13.00;;
4182;SDS011;2105;52.300;9.182;2023-02-25T10:55:29;14.60;;;13.40;;
4182;SDS011;2105;52.300;9.182;2023-02-25T10:58:20;15.50;;;13.77;;
4182;SDS011;2105;52.300;9.182;2023-02-25T11:00:57;14.70;;;13.60;;
4182;SDS011;2105;52.300;9.182;2023-02-25T11:03:27;15.70;;;14.50;;
4182;SDS011;2105;52.300;9.182;2023-02-25T11:06:07;16.60;;;15.13;;
4182;SDS011;2105;52.300;9.182;2023-02-25T11:08:42;16.07;;;14.77;;
4182;SDS011;2105;52.300;9.182;2023-02-25T11:11:19;16.50;;;15.20;;
4182;SDS011;2105;52.300;9.182;2023-02-25T11:13:55;16.50;;;15.20;;
4182;SDS011;2105;52.300;9.182;2023-02-25T11:16:44;16.77;;;14.80;;
4182;SDS011;2105;52.300;9.182;2023-02-25T11:19:38;16.70;;;15.50;;
4182;SDS011;2105;52.300;9.182;2023-02-25T11:23:25;17.83;;;16.20;;
4182;SDS011;2105;52.300;9.182;2023-02-25T11:26:03;17.87;;;16.27;;
4182;SDS011;2105;52.300;9.182;2023-02-25T11:29:03;17.70;;;16.30;;
4182;SDS011;2105;52.300;9.182;2023-02-25T11:31:49;18.07;;;16.63;;
4182;SDS011;2105;52.300;9.182;2023-02-25T11:38:45;17.40;;;16.20;;
4182;SDS011;2105;52.300;9.182;2023-02-25T11:41:44;16.80;;;15.70;;
4182;SDS011;2105;52.300;9.182;2023-02-25T11:45:04;17.50;;;16.20;;
4182;SDS011;2105;52.300;9.182;2023-02-25T11:57:19;16.00;;;14.80;;
4182;SDS011;2105;52.300;9.182;2023-02-25T11:59:56;16.57;;;15.20;;
4182;SDS011;2105;52.300;9.182;2023-02-25T12:02:42;17.33;;;15.80;;
4182;SDS011;2105;52.300;9.182;2023-02-25T12:05:44;17.60;;;16.10;;
4182;SDS011;2105;52.300;9.182;2023-02-25T12:08:40;16.60;;;15.40;;
4182;SDS011;2105;52.300;9.182;2023-02-25T12:20:38;17.80;;;16.50;;
4182;SDS011;2105;52.300;9.182;2023-02-25T12:23:35;16.10;;;14.90;;
4182;SDS011;2105;52.300;9.182;2023-02-25T12:26:33;17.40;;;16.00;;
4182;SDS011;2105;52.300;9.182;2023-02-25T12:32:20;16.90;;;15.80;;
4182;SDS011;2105;52.300;9.182;2023-02-25T12:51:22;16.47;;;15.27;;
4182;SDS011;2105;52.300;9.182;2023-02-25T12:54:15;16.53;;;15.23;;
4182;SDS011;2105;52.300;9.182;2023-02-25T13:07:29;15.87;;;14.60;;
4182;SDS011;2105;52.300;9.182;2023-02-25T14:19:29;15.47;;;14.30;;
4182;SDS011;2105;52.300;9.182;2023-02-25T14:22:46;14.70;;;13.60;;
4182;SDS011;2105;52.300;9.182;2023-02-25T14:25:35;15.50;;;14.13;;
4182;SDS011;2105;52.300;9.182;2023-02-25T14:31:55;15.80;;;14.30;;
4182;SDS011;2105;52.300;9.182;2023-02-25T14:34:47;15.57;;;14.37;;
4182;SDS011;2105;52.300;9.182;2023-02-25T14:37:33;16.27;;;14.80;;
4182;SDS011;2105;52.300;9.182;2023-02-25T14:40:21;14.90;;;13.90;;
4182;SDS011;2105;52.300;9.182;2023-02-25T14:43:08;16.47;;;15.10;;
4182;SDS011;2105;52.300;9.182;2023-02-25T14:45:52;15.23;;;13.93;;
4182;SDS011;2105;52.300;9.182;2023-02-25T14:48:28;14.70;;;13.40;;
4182;SDS011;2105;52.300;9.182;2023-02-25T14:51:08;14.27;;;13.27;;
4182;SDS011;2105;52.300;9.182;2023-02-25T14:57:02;14.43;;;13.37;;
4182;SDS011;2105;52.300;9.182;2023-02-25T15:03:01;14.77;;;13.50;;
4182;SDS011;2105;52.300;9.182;2023-02-25T15:05:51;14.70;;;13.60;;
4182;SDS011;2105;52.300;9.182;2023-02-25T15:08:41;13.83;;;12.73;;
4182;SDS011;2105;52.300;9.182;2023-02-25T15:11:38;14.07;;;13.00;;
4182;SDS011;2105;52.300;9.182;2023-02-25T15:14:22;14.80;;;13.70;;
4182;SDS011;2105;52.300;9.182;2023-02-25T15:17:15;14.33;;;13.33;;
4182;SDS011;2105;52.300;9.182;2023-02-25T15:23:03;14.77;;;13.77;;
4182;SDS011;2105;52.300;9.182;2023-02-25T15:28:41;15.13;;;13.80;;
4182;SDS011;2105;52.300;9.182;2023-02-25T15:39:49;14.37;;;13.07;;
4182;SDS011;2105;52.300;9.182;2023-02-25T15:42:36;14.10;;;13.10;;
4182;SDS011;2105;52.300;9.182;2023-02-25T15:48:23;14.20;;;13.10;;
4182;SDS011;2105;52.300;9.182;2023-02-25T15:50:56;14.53;;;13.27;;
4182;SDS011;2105;52.300;9.182;2023-02-25T15:56:22;14.73;;;13.53;;
4182;SDS011;2105;52.300;9.182;2023-02-25T15:59:12;14.60;;;13.50;;
4182;SDS011;2105;52.300;9.182;2023-02-25T16:05:04;14.40;;;13.40;;
4182;SDS011;2105;52.300;9.182;2023-02-25T16:07:48;15.20;;;14.00;;
4182;SDS011;2105;52.300;9.182;2023-02-25T16:10:34;15.40;;;14.10;;
4182;SDS011;2105;52.300;9.182;2023-02-25T16:13:05;14.90;;;13.80;;
4182;SDS011;2105;52.300;9.182;2023-02-25T16:15:41;14.97;;;13.57;;
4182;SDS011;2105;52.300;9.182;2023-02-25T16:18:13;15.37;;;14.17;;
4182;SDS011;2105;52.300;9.182;2023-02-25T16:20:57;14.67;;;13.70;;
4182;SDS011;2105;52.300;9.182;2023-02-25T16:23:30;15.20;;;13.87;;
4182;SDS011;2105;52.300;9.182;2023-02-25T16:25:59;13.87;;;12.97;;
4182;SDS011;2105;52.300;9.182;2023-02-25T16:28:38;16.30;;;14.03;;
4182;SDS011;2105;52.300;9.182;2023-02-25T16:31:13;15.43;;;14.13;;
4182;SDS011;2105;52.300;9.182;2023-02-25T16:33:48;16.60;;;14.97;;
4182;SDS011;2105;52.300;9.182;2023-02-25T16:36:22;14.93;;;13.60;;
4182;SDS011;2105;52.300;9.182;2023-02-25T16:38:55;14.93;;;13.80;;
4182;SDS011;2105;52.300;9.182;2023-02-25T16:41:24;14.40;;;13.30;;
4182;SDS011;2105;52.300;9.182;2023-02-25T16:44:05;15.57;;;14.17;;
4182;SDS011;2105;52.300;9.182;2023-02-25T16:46:39;15.40;;;14.30;;
4182;SDS011;2105;52.300;9.182;2023-02-25T16:49:35;15.80;;;14.40;;
4182;SDS011;2105;52.300;9.182;2023-02-25T16:52:20;15.67;;;14.40;;
4182;SDS011;2105;52.300;9.182;2023-02-25T16:54:59;15.60;;;14.37;;
4182;SDS011;2105;52.300;9.182;2023-02-25T16:57:38;15.07;;;13.87;;
4182;SDS011;2105;52.300;9.182;2023-02-25T17:00:12;15.93;;;14.47;;
4182;SDS011;2105;52.300;9.182;2023-02-25T17:02:50;15.33;;;14.33;;
4182;SDS011;2105;52.300;9.182;2023-02-25T17:05:28;16.10;;;13.67;;
4182;SDS011;2105;52.300;9.182;2023-02-25T17:07:59;14.80;;;13.70;;
4182;SDS011;2105;52.300;9.182;2023-02-25T17:10:31;15.67;;;14.27;;
4182;SDS011;2105;52.300;9.182;2023-02-25T17:13:32;16.00;;;14.63;;
4182;SDS011;2105;52.300;9.182;2023-02-25T17:16:15;16.40;;;14.90;;
4182;SDS011;2105;52.300;9.182;2023-02-25T17:18:51;15.80;;;14.40;;
4182;SDS011;2105;52.300;9.182;2023-02-25T17:21:29;15.57;;;14.30;;
4182;SDS011;2105;52.300;9.182;2023-02-25T17:27:06;15.70;;;14.37;;
4182;SDS011;2105;52.300;9.182;2023-02-25T17:29:53;15.93;;;14.37;;
4182;SDS011;2105;52.300;9.182;2023-02-25T17:32:27;15.73;;;14.43;;
4182;SDS011;2105;52.300;9.182;2023-02-25T17:35:17;14.90;;;13.73;;
4182;SDS011;2105;52.300;9.182;2023-02-25T17:37:46;16.00;;;13.80;;
4182;SDS011;2105;52.300;9.182;2023-02-25T17:40:13;15.40;;;14.20;;
4182;SDS011;2105;52.300;9.182;2023-02-25T17:42:51;15.90;;;14.00;;
4182;SDS011;2105;52.300;9.182;2023-02-25T17:45:48;15.30;;;13.90;;
4182;SDS011;2105;52.300;9.182;2023-02-25T17:48:18;15.07;;;13.73;;
4182;SDS011;2105;52.300;9.182;2023-02-25T17:51:06;16.20;;;13.90;;
4182;SDS011;2105;52.300;9.182;2023-02-25T17:53:44;15.10;;;13.80;;
4182;SDS011;2105;52.300;9.182;2023-02-25T17:56:26;15.47;;;14.00;;
4182;SDS011;2105;52.300;9.182;2023-02-25T17:58:57;15.03;;;13.63;;
4182;SDS011;2105;52.300;9.182;2023-02-25T18:01:40;14.73;;;13.50;;
4182;SDS011;2105;52.300;9.182;2023-02-25T18:04:22;15.13;;;13.93;;
4182;SDS011;2105;52.300;9.182;2023-02-25T18:06:53;15.43;;;13.97;;
4182;SDS011;2105;52.300;9.182;2023-02-25T18:09:37;15.67;;;14.33;;
4182;SDS011;2105;52.300;9.182;2023-02-25T18:12:07;14.93;;;13.80;;
4182;SDS011;2105;52.300;9.182;2023-02-25T18:14:46;14.90;;;13.70;;
4182;SDS011;2105;52.300;9.182;2023-02-25T18:17:22;14.60;;;13.50;;
4182;SDS011;2105;52.300;9.182;2023-02-25T18:19:52;15.93;;;14.50;;
4182;SDS011;2105;52.300;9.182;2023-02-25T18:22:24;14.93;;;13.83;;
4182;SDS011;2105;52.300;9.182;2023-02-25T18:25:00;15.70;;;14.30;;
4182;SDS011;2105;52.300;9.182;2023-02-25T18:27:30;16.83;;;15.17;;